sensor_id;sensor_type;location;lat;lon;timestamp;pressure;altitude;pressure_sealevel;temperature;humidity
20955;BME280;10636;19.390;-99.256;2022-11-10T00:00:36;77876.25;;;25.78;30.53
20955;BME280;10636;19.390;-99.256;2022-11-10T00:03:07;77879.56;;;25.77;30.36
20955;BME280;10636;19.390;-99.256;2022-11-10T00:05:37;77877.50;;;25.75;30.41
20955;BME280;10636;19.390;-99.256;2022-11-10T00:08:07;77858.94;;;25.64;30.94
20955;BME280;10636;19.390;-99.256;2022-11-10T00:10:37;77884.31;;;25.78;30.91
20955;BME280;10636;19.390;-99.256;2022-11-10T00:13:23;77893.75;;;25.79;31.02
20955;BME280;10636;19.390;-99.256;2022-11-10T00:15:52;77888.38;;;25.79;31.03
20955;BME280;10636;19.390;-99.256;2022-11-10T00:18:39;77893.75;;;25.79;30.91
20955;BME280;10636;19.390;-99.256;2022-11-10T00:21:08;77893.75;;;25.79;30.77
20955;BME280;10636;19.390;-99.256;2022-11-10T00:23:40;77901.81;;;25.79;31.00
20955;BME280;10636;19.390;-99.256;2022-11-10T00:26:13;77897.75;;;25.78;31.24
20955;BME280;10636;19.390;-99.256;2022-11-10T00:28:42;77905.72;;;25.76;30.81
20955;BME280;10636;19.390;-99.256;2022-11-10T00:31:11;77907.09;;;25.77;31.12
20955;BME280;10636;19.390;-99.256;2022-11-10T00:33:42;77903.03;;;25.76;31.58
20955;BME280;10636;19.390;-99.256;2022-11-10T00:36:11;77907.09;;;25.77;31.39
20955;BME280;10636;19.390;-99.256;2022-11-10T00:38:39;77909.72;;;25.75;31.49
20955;BME280;10636;19.390;-99.256;2022-11-10T00:41:08;77914.41;;;25.75;31.50
20955;BME280;10636;19.390;-99.256;2022-11-10T00:43:37;77918.38;;;25.74;31.60
20955;BME280;10636;19.390;-99.256;2022-11-10T00:46:05;77917.69;;;25.73;31.50
20955;BME280;10636;19.390;-99.256;2022-11-10T00:48:34;77929.84;;;25.74;31.87
20955;BME280;10636;19.390;-99.256;2022-11-10T00:51:04;77929.84;;;25.74;31.60
20955;BME280;10636;19.390;-99.256;2022-11-10T00:53:33;77930.41;;;25.73;31.80
20955;BME280;10636;19.390;-99.256;2022-11-10T00:56:01;77929.84;;;25.74;31.59
20955;BME280;10636;19.390;-99.256;2022-11-10T00:58:30;77943.16;;;25.72;31.88
20955;BME280;10636;19.390;-99.256;2022-11-10T01:01:01;77942.47;;;25.72;32.01
20955;BME280;10636;19.390;-99.256;2022-11-10T01:03:31;77957.84;;;25.69;32.11
20955;BME280;10636;19.390;-99.256;2022-11-10T01:06:04;77957.84;;;25.69;32.19
20955;BME280;10636;19.390;-99.256;2022-11-10T01:08:34;77964.53;;;25.68;31.91
20955;BME280;10636;19.390;-99.256;2022-11-10T01:11:03;77968.50;;;25.67;32.39
20955;BME280;10636;19.390;-99.256;2022-11-10T01:13:32;77973.28;;;25.69;32.60
20955;BME280;10636;19.390;-99.256;2022-11-10T01:16:03;77975.19;;;25.66;32.68
20955;BME280;10636;19.390;-99.256;2022-11-10T01:18:32;77981.88;;;25.65;32.93
20955;BME280;10636;19.390;-99.256;2022-11-10T01:21:01;77984.56;;;25.65;32.94
20955;BME280;10636;19.390;-99.256;2022-11-10T01:23:31;77991.16;;;25.62;33.40
20955;BME280;10636;19.390;-99.256;2022-11-10T01:26:02;77995.09;;;25.59;33.45
20955;BME280;10636;19.390;-99.256;2022-11-10T01:28:31;78006.50;;;25.60;33.34
20955;BME280;10636;19.390;-99.256;2022-11-10T01:31:01;78007.81;;;25.59;33.62
20955;BME280;10636;19.390;-99.256;2022-11-10T01:33:30;78012.41;;;25.56;34.02
20955;BME280;10636;19.390;-99.256;2022-11-10T01:35:59;78013.72;;;25.55;34.21
20955;BME280;10636;19.390;-99.256;2022-11-10T01:38:30;78027.09;;;25.53;34.16
20955;BME280;10636;19.390;-99.256;2022-11-10T01:40:59;78026.41;;;25.52;34.66
20955;BME280;10636;19.390;-99.256;2022-11-10T01:43:28;78004.84;;;25.33;34.74
20955;BME280;10636;19.390;-99.256;2022-11-10T01:45:59;78045.03;;;25.48;35.10
20955;BME280;10636;19.390;-99.256;2022-11-10T01:48:31;78048.34;;;25.47;34.91
20955;BME280;10636;19.390;-99.256;2022-11-10T01:51:03;78053.00;;;25.46;35.41
20955;BME280;10636;19.390;-99.256;2022-11-10T01:53:35;78054.16;;;25.41;35.46
20955;BME280;10636;19.390;-99.256;2022-11-10T01:56:06;78077.09;;;25.44;35.24
20955;BME280;10636;19.390;-99.256;2022-11-10T01:58:38;78077.72;;;25.43;35.62
20955;BME280;10636;19.390;-99.256;2022-11-10T02:01:09;78076.09;;;25.36;35.66
20955;BME280;10636;19.390;-99.256;2022-11-10T02:03:41;78088.31;;;25.39;35.61
20955;BME280;10636;19.390;-99.256;2022-11-10T02:06:12;78098.97;;;25.37;35.97
20955;BME280;10636;19.390;-99.256;2022-11-10T02:08:44;78096.88;;;25.35;35.93
20955;BME280;10636;19.390;-99.256;2022-11-10T02:11:12;78098.81;;;25.33;36.29
20955;BME280;10636;19.390;-99.256;2022-11-10T02:13:41;78096.03;;;25.30;35.88
20955;BME280;10636;19.390;-99.256;2022-11-10T02:16:10;78112.75;;;25.29;36.31
20955;BME280;10636;19.390;-99.256;2022-11-10T02:18:39;78112.69;;;25.27;36.41
20955;BME280;10636;19.390;-99.256;2022-11-10T02:21:09;78125.34;;;25.24;35.99
20955;BME280;10636;19.390;-99.256;2022-11-10T02:23:46;78129.41;;;25.25;36.47
20955;BME280;10636;19.390;-99.256;2022-11-10T02:26:18;78134.69;;;25.23;36.28
20955;BME280;10636;19.390;-99.256;2022-11-10T02:28:48;78109.91;;;25.07;36.29
20955;BME280;10636;19.390;-99.256;2022-11-10T02:31:17;78136.75;;;25.25;36.53
20955;BME280;10636;19.390;-99.256;2022-11-10T02:33:45;78136.06;;;25.24;37.00
20955;BME280;10636;19.390;-99.256;2022-11-10T02:36:15;78147.44;;;25.23;37.15
20955;BME280;10636;19.390;-99.256;2022-11-10T02:38:44;78140.00;;;25.21;36.73
20955;BME280;10636;19.390;-99.256;2022-11-10T02:41:12;78150.03;;;25.21;36.42
20955;BME280;10636;19.390;-99.256;2022-11-10T02:43:41;78153.47;;;25.23;36.46
20955;BME280;10636;19.390;-99.256;2022-11-10T02:46:09;78144.22;;;25.26;36.44
20955;BME280;10636;19.390;-99.256;2022-11-10T02:48:38;78152.28;;;25.26;36.49
20955;BME280;10636;19.390;-99.256;2022-11-10T02:51:06;78157.72;;;25.28;36.61
20955;BME280;10636;19.390;-99.256;2022-11-10T02:53:36;78159.03;;;25.27;36.27
20955;BME280;10636;19.390;-99.256;2022-11-10T02:56:06;78159.09;;;25.29;36.23
20955;BME280;10636;19.390;-99.256;2022-11-10T02:58:34;78154.97;;;25.26;36.63
20955;BME280;10636;19.390;-99.256;2022-11-10T03:01:04;78160.47;;;25.30;36.38
20955;BME280;10636;19.390;-99.256;2022-11-10T03:03:33;78169.81;;;25.29;36.44
20955;BME280;10636;19.390;-99.256;2022-11-10T03:06:02;78167.25;;;25.32;36.86
20955;BME280;10636;19.390;-99.256;2022-11-10T03:08:30;78167.25;;;25.32;36.78
20955;BME280;10636;19.390;-99.256;2022-11-10T03:11:00;78167.25;;;25.32;36.47
20955;BME280;10636;19.390;-99.256;2022-11-10T03:13:29;78160.47;;;25.30;36.71
20955;BME280;10636;19.390;-99.256;2022-11-10T03:15:57;78172.59;;;25.32;36.94
20955;BME280;10636;19.390;-99.256;2022-11-10T03:18:26;78161.88;;;25.32;36.86
20955;BME280;10636;19.390;-99.256;2022-11-10T03:20:54;78170.59;;;25.32;36.65
20955;BME280;10636;19.390;-99.256;2022-11-10T03:23:23;78172.69;;;25.34;37.09
20955;BME280;10636;19.390;-99.256;2022-11-10T03:25:51;78167.25;;;25.32;36.86
20955;BME280;10636;19.390;-99.256;2022-11-10T03:28:21;78169.31;;;25.33;37.31
20955;BME280;10636;19.390;-99.256;2022-11-10T03:30:50;78171.38;;;25.35;37.23
20955;BME280;10636;19.390;-99.256;2022-11-10T03:33:18;78182.09;;;25.35;37.07
20955;BME280;10636;19.390;-99.256;2022-11-10T03:35:46;78177.44;;;25.35;36.90
20955;BME280;10636;19.390;-99.256;2022-11-10T03:38:15;78180.81;;;25.36;37.21
20955;BME280;10636;19.390;-99.256;2022-11-10T03:40:43;78171.38;;;25.35;37.14
20955;BME280;10636;19.390;-99.256;2022-11-10T03:43:12;78178.81;;;25.36;37.26
20955;BME280;10636;19.390;-99.256;2022-11-10T03:45:43;78184.88;;;25.37;37.19
20955;BME280;10636;19.390;-99.256;2022-11-10T03:48:12;78182.09;;;25.35;37.16
20955;BME280;10636;19.390;-99.256;2022-11-10T03:50:41;78184.19;;;25.36;37.07
20955;BME280;10636;19.390;-99.256;2022-11-10T03:53:09;78182.22;;;25.37;37.34
20955;BME280;10636;19.390;-99.256;2022-11-10T03:55:37;78182.78;;;25.35;37.42
20955;BME280;10636;19.390;-99.256;2022-11-10T03:58:06;78186.16;;;25.36;37.04
20955;BME280;10636;19.390;-99.256;2022-11-10T04:00:34;78179.44;;;25.35;37.09
20955;BME280;10636;19.390;-99.256;2022-11-10T04:03:04;78176.75;;;25.35;37.37
20955;BME280;10636;19.390;-99.256;2022-11-10T04:05:33;78179.44;;;25.35;37.19
20955;BME280;10636;19.390;-99.256;2022-11-10T04:08:18;78186.09;;;25.34;37.29
20955;BME280;10636;19.390;-99.256;2022-11-10T04:11:03;78183.34;;;25.32;37.27
20955;BME280;10636;19.390;-99.256;2022-11-10T04:13:32;78177.97;;;25.32;37.51
20955;BME280;10636;19.390;-99.256;2022-11-10T04:16:17;78192.69;;;25.30;36.95
20955;BME280;10636;19.390;-99.256;2022-11-10T04:18:49;78184.63;;;25.30;37.41
20955;BME280;10636;19.390;-99.256;2022-11-10T04:21:17;78180.66;;;25.32;37.59
20955;BME280;10636;19.390;-99.256;2022-11-10T04:23:46;78181.94;;;25.30;37.10
20955;BME280;10636;19.390;-99.256;2022-11-10T04:26:15;78184.56;;;25.28;37.67
20955;BME280;10636;19.390;-99.256;2022-11-10T04:28:57;78177.56;;;25.21;37.39
20955;BME280;10636;19.390;-99.256;2022-11-10T04:31:29;78187.16;;;25.26;37.66
20955;BME280;10636;19.390;-99.256;2022-11-10T04:33:59;78197.28;;;25.28;37.34
20955;BME280;10636;19.390;-99.256;2022-11-10T04:36:29;78186.47;;;25.26;37.36
20955;BME280;10636;19.390;-99.256;2022-11-10T04:38:57;78188.53;;;25.27;37.23
20955;BME280;10636;19.390;-99.256;2022-11-10T04:41:27;78193.91;;;25.27;37.50
20955;BME280;10636;19.390;-99.256;2022-11-10T04:43:57;78183.19;;;25.27;37.53
20955;BME280;10636;19.390;-99.256;2022-11-10T04:46:28;78179.13;;;25.26;37.40
20955;BME280;10636;19.390;-99.256;2022-11-10T04:48:59;78185.16;;;25.27;37.50
20955;BME280;10636;19.390;-99.256;2022-11-10T04:51:29;78185.75;;;25.25;37.63
20955;BME280;10636;19.390;-99.256;2022-11-10T04:53:58;78170.66;;;25.16;37.43
20955;BME280;10636;19.390;-99.256;2022-11-10T04:56:26;78181.63;;;25.22;37.72
20955;BME280;10636;19.390;-99.256;2022-11-10T04:58:55;78187.00;;;25.22;37.78
20955;BME280;10636;19.390;-99.256;2022-11-10T05:01:25;78169.28;;;25.15;37.56
20955;BME280;10636;19.390;-99.256;2022-11-10T05:03:54;78181.47;;;25.18;37.12
20955;BME280;10636;19.390;-99.256;2022-11-10T05:06:24;78177.41;;;25.17;37.62
20955;BME280;10636;19.390;-99.256;2022-11-10T05:08:53;78176.03;;;25.16;37.52
20955;BME280;10636;19.390;-99.256;2022-11-10T05:11:21;78179.91;;;25.13;37.39
20955;BME280;10636;19.390;-99.256;2022-11-10T05:13:50;78173.16;;;25.12;37.58
20955;BME280;10636;19.390;-99.256;2022-11-10T05:16:18;78172.47;;;25.12;37.76
20955;BME280;10636;19.390;-99.256;2022-11-10T05:18:47;78172.38;;;25.10;37.39
20955;BME280;10636;19.390;-99.256;2022-11-10T05:21:19;78169.63;;;25.08;37.71
20955;BME280;10636;19.390;-99.256;2022-11-10T05:23:49;78170.25;;;25.06;37.64
20955;BME280;10636;19.390;-99.256;2022-11-10T05:26:17;78170.81;;;25.04;37.56
20955;BME280;10636;19.390;-99.256;2022-11-10T05:28:46;78167.44;;;25.04;37.94
20955;BME280;10636;19.390;-99.256;2022-11-10T05:31:14;78156.69;;;25.04;37.91
20955;BME280;10636;19.390;-99.256;2022-11-10T05:33:43;78167.44;;;25.04;37.58
20955;BME280;10636;19.390;-99.256;2022-11-10T05:36:11;78157.25;;;25.00;37.62
20955;BME280;10636;19.390;-99.256;2022-11-10T05:38:39;78157.25;;;25.00;37.93
20955;BME280;10636;19.390;-99.256;2022-11-10T05:41:10;78163.91;;;24.99;37.81
20955;BME280;10636;19.390;-99.256;2022-11-10T05:43:38;78171.34;;;25.01;37.92
20955;BME280;10636;19.390;-99.256;2022-11-10T05:46:07;78159.94;;;25.00;37.60
20955;BME280;10636;19.390;-99.256;2022-11-10T05:48:35;78157.16;;;24.98;37.59
20955;BME280;10636;19.390;-99.256;2022-11-10T05:51:04;78153.09;;;24.97;37.94
20955;BME280;10636;19.390;-99.256;2022-11-10T05:53:32;78155.09;;;24.97;37.46
20955;BME280;10636;19.390;-99.256;2022-11-10T05:56:00;78146.34;;;24.96;37.77
20955;BME280;10636;19.390;-99.256;2022-11-10T05:58:30;78149.03;;;24.96;37.99
20955;BME280;10636;19.390;-99.256;2022-11-10T06:00:59;78151.03;;;24.96;37.45
20955;BME280;10636;19.390;-99.256;2022-11-10T06:03:27;78142.88;;;24.94;37.92
20955;BME280;10636;19.390;-99.256;2022-11-10T06:05:56;78142.88;;;24.94;37.87
20955;BME280;10636;19.390;-99.256;2022-11-10T06:08:25;78141.50;;;24.93;37.80
20955;BME280;10636;19.390;-99.256;2022-11-10T06:10:53;78142.81;;;24.92;38.17
20955;BME280;10636;19.390;-99.256;2022-11-10T06:13:22;78135.97;;;24.89;37.97
20955;BME280;10636;19.390;-99.256;2022-11-10T06:15:52;78130.59;;;24.89;38.33
20955;BME280;10636;19.390;-99.256;2022-11-10T06:18:20;78121.16;;;24.88;37.66
20955;BME280;10636;19.390;-99.256;2022-11-10T06:20:49;78121.78;;;24.86;37.97
20955;BME280;10636;19.390;-99.256;2022-11-10T06:23:17;78122.47;;;24.87;38.22
20955;BME280;10636;19.390;-99.256;2022-11-10T06:25:46;78117.09;;;24.87;38.17
20955;BME280;10636;19.390;-99.256;2022-11-10T06:28:14;78112.38;;;24.85;37.74
20955;BME280;10636;19.390;-99.256;2022-11-10T06:30:42;78104.94;;;24.84;38.20
20955;BME280;10636;19.390;-99.256;2022-11-10T06:33:12;78092.72;;;24.81;38.22
20955;BME280;10636;19.390;-99.256;2022-11-10T06:35:41;78094.09;;;24.82;37.95
20955;BME280;10636;19.390;-99.256;2022-11-10T06:38:13;78089.72;;;24.72;37.86
20955;BME280;10636;19.390;-99.256;2022-11-10T06:40:42;78089.97;;;24.78;38.17
20955;BME280;10636;19.390;-99.256;2022-11-10T06:43:10;78092.56;;;24.76;38.30
20955;BME280;10636;19.390;-99.256;2022-11-10T06:45:38;78100.69;;;24.78;37.86
20955;BME280;10636;19.390;-99.256;2022-11-10T06:48:10;78098.63;;;24.77;38.37
20955;BME280;10636;19.390;-99.256;2022-11-10T06:50:40;78097.84;;;24.74;38.29
20955;BME280;10636;19.390;-99.256;2022-11-10T06:53:09;78087.72;;;24.73;38.41
20955;BME280;10636;19.390;-99.256;2022-11-10T06:55:39;78091.81;;;24.74;38.13
20955;BME280;10636;19.390;-99.256;2022-11-10T06:58:08;78087.72;;;24.73;38.29
20955;BME280;10636;19.390;-99.256;2022-11-10T07:00:37;78087.66;;;24.71;37.99
20955;BME280;10636;19.390;-99.256;2022-11-10T07:03:06;78089.03;;;24.72;38.17
20955;BME280;10636;19.390;-99.256;2022-11-10T07:05:36;78084.28;;;24.70;37.88
20955;BME280;10636;19.390;-99.256;2022-11-10T07:08:07;78078.84;;;24.68;38.10
20955;BME280;10636;19.390;-99.256;2022-11-10T07:10:36;78070.69;;;24.66;38.57
20955;BME280;10636;19.390;-99.256;2022-11-10T07:13:05;78071.47;;;24.69;38.12
20955;BME280;10636;19.390;-99.256;2022-11-10T07:15:33;78070.00;;;24.66;38.63
20955;BME280;10636;19.390;-99.256;2022-11-10T07:18:02;78054.88;;;24.57;38.44
20955;BME280;10636;19.390;-99.256;2022-11-10T07:20:31;78057.22;;;24.64;38.61
20955;BME280;10636;19.390;-99.256;2022-11-10T07:23:00;78061.28;;;24.65;38.72
20955;BME280;10636;19.390;-99.256;2022-11-10T07:25:32;78064.56;;;24.64;38.27
20955;BME280;10636;19.390;-99.256;2022-11-10T07:28:02;78057.13;;;24.62;38.23
20955;BME280;10636;19.390;-99.256;2022-11-10T07:30:33;78046.41;;;24.62;38.21
20955;BME280;10636;19.390;-99.256;2022-11-10T07:33:03;78044.94;;;24.59;38.55
20955;BME280;10636;19.390;-99.256;2022-11-10T07:35:32;78044.31;;;24.61;38.76
20955;BME280;10636;19.390;-99.256;2022-11-10T07:38:02;78045.63;;;24.60;38.41
20955;BME280;10636;19.390;-99.256;2022-11-10T07:40:33;78037.59;;;24.60;38.16
20955;BME280;10636;19.390;-99.256;2022-11-10T07:43:02;78036.91;;;24.59;38.40
20955;BME280;10636;19.390;-99.256;2022-11-10T07:45:31;78035.53;;;24.58;38.31
20955;BME280;10636;19.390;-99.256;2022-11-10T07:47:59;78038.22;;;24.58;38.38
20955;BME280;10636;19.390;-99.256;2022-11-10T07:50:28;78039.47;;;24.57;38.60
20955;BME280;10636;19.390;-99.256;2022-11-10T07:53:04;78036.81;;;24.57;38.88
20955;BME280;10636;19.390;-99.256;2022-11-10T07:55:37;78030.06;;;24.56;38.27
20955;BME280;10636;19.390;-99.256;2022-11-10T07:58:05;78033.38;;;24.55;38.37
20955;BME280;10636;19.390;-99.256;2022-11-10T08:00:34;78024.63;;;24.54;38.84
20955;BME280;10636;19.390;-99.256;2022-11-10T08:03:05;78023.94;;;24.54;38.43
20955;BME280;10636;19.390;-99.256;2022-11-10T08:05:34;78022.56;;;24.52;38.12
20955;BME280;10636;19.390;-99.256;2022-11-10T08:08:02;78021.16;;;24.51;38.17
20955;BME280;10636;19.390;-99.256;2022-11-10T08:10:32;78017.78;;;24.51;38.58
20955;BME280;10636;19.390;-99.256;2022-11-10T08:13:04;78017.09;;;24.50;38.28
20955;BME280;10636;19.390;-99.256;2022-11-10T08:15:34;78014.44;;;24.50;38.18
20955;BME280;10636;19.390;-99.256;2022-11-10T08:18:04;78013.75;;;24.50;38.46
20955;BME280;10636;19.390;-99.256;2022-11-10T08:20:33;78018.41;;;24.49;38.50
20955;BME280;10636;19.390;-99.256;2022-11-10T08:23:03;78007.00;;;24.49;38.18
20955;BME280;10636;19.390;-99.256;2022-11-10T08:25:34;78005.00;;;24.49;38.24
20955;BME280;10636;19.390;-99.256;2022-11-10T08:28:06;78000.94;;;24.48;38.20
20955;BME280;10636;19.390;-99.256;2022-11-10T08:30:36;78001.63;;;24.49;38.19
20955;BME280;10636;19.390;-99.256;2022-11-10T08:33:06;77998.19;;;24.46;38.09
20955;BME280;10636;19.390;-99.256;2022-11-10T08:35:36;78002.84;;;24.46;38.69
20955;BME280;10636;19.390;-99.256;2022-11-10T08:38:07;77998.78;;;24.45;38.10
20955;BME280;10636;19.390;-99.256;2022-11-10T08:40:36;78001.47;;;24.45;38.54
20955;BME280;10636;19.390;-99.256;2022-11-10T08:43:06;77993.44;;;24.45;38.70
20955;BME280;10636;19.390;-99.256;2022-11-10T08:45:35;77997.41;;;24.44;37.88
20955;BME280;10636;19.390;-99.256;2022-11-10T08:48:05;78002.09;;;24.43;38.20
20955;BME280;10636;19.390;-99.256;2022-11-10T08:50:34;77992.69;;;24.42;38.59
20955;BME280;10636;19.390;-99.256;2022-11-10T08:53:03;77990.59;;;24.41;38.09
20955;BME280;10636;19.390;-99.256;2022-11-10T08:55:32;77995.94;;;24.41;37.83
20955;BME280;10636;19.390;-99.256;2022-11-10T08:58:01;77993.25;;;24.41;38.40
20955;BME280;10636;19.390;-99.256;2022-11-10T09:00:32;77994.56;;;24.40;38.57
20955;BME280;10636;19.390;-99.256;2022-11-10T09:03:05;77995.25;;;24.40;37.83
20955;BME280;10636;19.390;-99.256;2022-11-10T09:05:34;77990.44;;;24.37;38.14
20955;BME280;10636;19.390;-99.256;2022-11-10T09:08:03;77982.41;;;24.37;37.76
20955;BME280;10636;19.390;-99.256;2022-11-10T09:10:35;77983.69;;;24.36;37.99
20955;BME280;10636;19.390;-99.256;2022-11-10T09:13:04;77983.69;;;24.36;37.90
20955;BME280;10636;19.390;-99.256;2022-11-10T09:15:34;77986.38;;;24.36;38.53
20955;BME280;10636;19.390;-99.256;2022-11-10T09:18:04;77984.97;;;24.35;37.98
20955;BME280;10636;19.390;-99.256;2022-11-10T09:20:34;77978.91;;;24.34;38.27
20955;BME280;10636;19.390;-99.256;2022-11-10T09:23:07;77990.25;;;24.33;38.54
20955;BME280;10636;19.390;-99.256;2022-11-10T09:25:36;77990.25;;;24.33;38.03
20955;BME280;10636;19.390;-99.256;2022-11-10T09:28:09;77986.19;;;24.32;38.51
20955;BME280;10636;19.390;-99.256;2022-11-10T09:30:40;77990.88;;;24.31;38.61
20955;BME280;10636;19.390;-99.256;2022-11-10T09:33:08;77990.09;;;24.29;38.24
20955;BME280;10636;19.390;-99.256;2022-11-10T09:35:37;77990.09;;;24.29;37.87
20955;BME280;10636;19.390;-99.256;2022-11-10T09:38:06;77989.41;;;24.28;38.48
20955;BME280;10636;19.390;-99.256;2022-11-10T09:40:46;77992.69;;;24.26;38.39
20955;BME280;10636;19.390;-99.256;2022-11-10T09:43:20;77991.38;;;24.27;38.31
20955;BME280;10636;19.390;-99.256;2022-11-10T09:45:54;77984.66;;;24.26;38.38
20955;BME280;10636;19.390;-99.256;2022-11-10T09:48:26;77983.19;;;24.23;38.57
20955;BME280;10636;19.390;-99.256;2022-11-10T09:50:58;77978.50;;;24.24;37.94
20955;BME280;10636;19.390;-99.256;2022-11-10T09:53:37;77975.06;;;24.21;38.38
20955;BME280;10636;19.390;-99.256;2022-11-10T09:56:12;77977.13;;;24.23;38.73
20955;BME280;10636;19.390;-99.256;2022-11-10T09:58:43;77977.81;;;24.23;38.02
20955;BME280;10636;19.390;-99.256;2022-11-10T10:01:25;77981.81;;;24.22;38.19
20955;BME280;10636;19.390;-99.256;2022-11-10T10:04:01;77975.06;;;24.21;38.17
20955;BME280;10636;19.390;-99.256;2022-11-10T10:06:40;77977.66;;;24.19;38.53
20955;BME280;10636;19.390;-99.256;2022-11-10T10:09:22;77977.66;;;24.19;38.25
20955;BME280;10636;19.390;-99.256;2022-11-10T10:12:00;77984.31;;;24.18;38.32
20955;BME280;10636;19.390;-99.256;2022-11-10T10:14:45;77980.94;;;24.18;38.64
20955;BME280;10636;19.390;-99.256;2022-11-10T10:17:23;77974.81;;;24.15;38.39
20955;BME280;10636;19.390;-99.256;2022-11-10T10:19:57;77978.88;;;24.16;38.11
20955;BME280;10636;19.390;-99.256;2022-11-10T10:25:25;77972.66;;;24.12;38.78
20955;BME280;10636;19.390;-99.256;2022-11-10T10:28:00;77974.03;;;24.13;38.17
20955;BME280;10636;19.390;-99.256;2022-11-10T10:30:33;77977.34;;;24.11;38.11
20955;BME280;10636;19.390;-99.256;2022-11-10T10:33:12;77974.66;;;24.11;38.86
20955;BME280;10636;19.390;-99.256;2022-11-10T10:35:42;77978.03;;;24.12;38.21
20955;BME280;10636;19.390;-99.256;2022-11-10T10:38:18;77974.56;;;24.09;38.97
20955;BME280;10636;19.390;-99.256;2022-11-10T10:40:50;77971.88;;;24.09;38.54
20955;BME280;10636;19.390;-99.256;2022-11-10T10:43:19;77974.56;;;24.09;38.70
20955;BME280;10636;19.390;-99.256;2022-11-10T10:46:03;77983.22;;;24.08;38.55
20955;BME280;10636;19.390;-99.256;2022-11-10T10:48:34;77979.78;;;24.05;38.78
20955;BME280;10636;19.390;-99.256;2022-11-10T10:51:03;77967.66;;;24.04;38.47
20955;BME280;10636;19.390;-99.256;2022-11-10T10:53:31;77977.69;;;24.04;38.31
20955;BME280;10636;19.390;-99.256;2022-11-10T10:56:01;77983.03;;;24.04;38.92
20955;BME280;10636;19.390;-99.256;2022-11-10T10:58:33;77976.31;;;24.03;38.56
20955;BME280;10636;19.390;-99.256;2022-11-10T11:01:06;77980.28;;;24.02;39.04
20955;BME280;10636;19.390;-99.256;2022-11-10T11:03:49;77978.22;;;24.00;38.80
20955;BME280;10636;19.390;-99.256;2022-11-10T11:06:19;77980.91;;;24.00;38.99
20955;BME280;10636;19.390;-99.256;2022-11-10T11:08:59;77968.09;;;23.98;38.87
20955;BME280;10636;19.390;-99.256;2022-11-10T11:11:29;77971.47;;;23.99;39.06
20955;BME280;10636;19.390;-99.256;2022-11-10T11:14:16;77971.47;;;23.99;38.42
20955;BME280;10636;19.390;-99.256;2022-11-10T11:16:48;77966.03;;;23.97;38.35
20955;BME280;10636;19.390;-99.256;2022-11-10T11:19:20;77961.38;;;23.97;38.50
20955;BME280;10636;19.390;-99.256;2022-11-10T11:21:58;77963.34;;;23.97;39.32
20955;BME280;10636;19.390;-99.256;2022-11-10T11:24:36;77965.78;;;23.91;38.77
20955;BME280;10636;19.390;-99.256;2022-11-10T11:27:12;77972.00;;;23.95;39.05
20955;BME280;10636;19.390;-99.256;2022-11-10T11:30:01;77971.31;;;23.95;39.36
20955;BME280;10636;19.390;-99.256;2022-11-10T11:32:49;77972.00;;;23.95;38.82
20955;BME280;10636;19.390;-99.256;2022-11-10T11:35:29;77969.94;;;23.94;39.71
20955;BME280;10636;19.390;-99.256;2022-11-10T11:38:09;77965.97;;;23.95;39.60
20955;BME280;10636;19.390;-99.256;2022-11-10T11:40:49;77980.66;;;23.94;39.75
20955;BME280;10636;19.390;-99.256;2022-11-10T11:43:37;77979.25;;;23.93;40.00
20955;BME280;10636;19.390;-99.256;2022-11-10T11:46:13;77980.56;;;23.92;39.42
20955;BME280;10636;19.390;-99.256;2022-11-10T11:48:50;77975.88;;;23.92;39.30
20955;BME280;10636;19.390;-99.256;2022-11-10T11:51:27;77981.88;;;23.91;39.39
20955;BME280;10636;19.390;-99.256;2022-11-10T11:54:21;77983.06;;;23.88;39.21
20955;BME280;10636;19.390;-99.256;2022-11-10T11:56:58;77980.50;;;23.90;39.41
20955;BME280;10636;19.390;-99.256;2022-11-10T11:59:53;77987.91;;;23.91;39.89
20955;BME280;10636;19.390;-99.256;2022-11-10T12:02:41;77989.28;;;23.92;39.82
20955;BME280;10636;19.390;-99.256;2022-11-10T12:05:29;77993.88;;;23.90;40.09
20955;BME280;10636;19.390;-99.256;2022-11-10T12:08:10;77997.94;;;23.91;39.51
20955;BME280;10636;19.390;-99.256;2022-11-10T12:10:46;77999.13;;;23.88;39.84
20955;BME280;10636;19.390;-99.256;2022-11-10T12:13:28;78001.75;;;23.86;39.88
20955;BME280;10636;19.390;-99.256;2022-11-10T12:16:07;78007.03;;;23.84;40.17
20955;BME280;10636;19.390;-99.256;2022-11-10T12:18:45;78005.63;;;23.83;39.58
20955;BME280;10636;19.390;-99.256;2022-11-10T12:21:24;78018.25;;;23.80;39.44
20955;BME280;10636;19.390;-99.256;2022-11-10T12:24:21;78020.25;;;23.80;39.97
20955;BME280;10636;19.390;-99.256;2022-11-10T12:26:55;78018.88;;;23.79;39.67
20955;BME280;10636;19.390;-99.256;2022-11-10T12:29:30;78026.09;;;23.76;39.50
20955;BME280;10636;19.390;-99.256;2022-11-10T12:32:03;78020.06;;;23.76;40.04
20955;BME280;10636;19.390;-99.256;2022-11-10T12:34:37;78025.34;;;23.73;40.13
20955;BME280;10636;19.390;-99.256;2022-11-10T12:37:14;78022.50;;;23.69;39.21
20955;BME280;10636;19.390;-99.256;2022-11-10T12:39:50;78025.16;;;23.69;39.77
20955;BME280;10636;19.390;-99.256;2022-11-10T12:42:23;78026.47;;;23.68;39.60
20955;BME280;10636;19.390;-99.256;2022-11-10T12:44:57;78029.03;;;23.66;39.43
20955;BME280;10636;19.390;-99.256;2022-11-10T12:47:30;78031.63;;;23.64;39.75
20955;BME280;10636;19.390;-99.256;2022-11-10T12:53:04;78039.56;;;23.62;39.73
20955;BME280;10636;19.390;-99.256;2022-11-10T12:55:43;78031.44;;;23.60;40.26
20955;BME280;10636;19.390;-99.256;2022-11-10T12:58:13;78042.16;;;23.60;39.97
20955;BME280;10636;19.390;-99.256;2022-11-10T13:00:44;78047.25;;;23.54;40.02
20955;BME280;10636;19.390;-99.256;2022-11-10T13:03:29;78044.19;;;23.46;40.17
20955;BME280;10636;19.390;-99.256;2022-11-10T13:05:59;78047.84;;;23.37;40.93
20955;BME280;10636;19.390;-99.256;2022-11-10T13:08:42;78046.16;;;23.30;40.19